createdAt,value
2019-02-17T00:01:04.163Z,33.00
2019-02-17T00:03:34.861Z,31.85
2019-02-17T00:06:05.479Z,30.32
2019-02-17T00:08:36.604Z,24.32
2019-02-17T00:11:07.267Z,31.45
2019-02-17T00:13:37.884Z,28.80
2019-02-17T00:16:08.536Z,27.45
2019-02-17T00:18:39.219Z,35.80
2019-02-17T00:21:09.828Z,30.07
2019-02-17T00:23:40.521Z,29.18
2019-02-17T00:26:11.097Z,30.92
2019-02-17T00:28:41.685Z,30.95
2019-02-17T00:31:12.343Z,28.85
2019-02-17T00:33:43.003Z,30.72
2019-02-17T00:36:13.649Z,35.78
2019-02-17T00:38:44.301Z,29.20
2019-02-17T00:41:14.930Z,30.30
2019-02-17T00:43:45.538Z,33.00
2019-02-17T00:46:16.255Z,33.13
2019-02-17T00:48:46.852Z,36.08
2019-02-17T00:51:17.515Z,32.48
2019-02-17T00:53:48.211Z,34.98
2019-02-17T00:56:18.942Z,31.30
2019-02-17T00:58:49.523Z,29.20
2019-02-17T01:01:20.172Z,34.38
2019-02-17T01:03:50.752Z,32.07
2019-02-17T01:06:21.328Z,32.25
2019-02-17T01:08:54.982Z,35.70
2019-02-17T01:11:25.583Z,34.40
2019-02-17T01:13:56.269Z,45.53
2019-02-17T01:16:26.893Z,27.52
2019-02-17T01:18:57.508Z,31.65
2019-02-17T01:21:28.135Z,31.68
2019-02-17T01:23:58.813Z,34.67
2019-02-17T01:26:29.460Z,32.98
2019-02-17T01:29:00.110Z,28.05
2019-02-17T01:31:30.687Z,26.95
2019-02-17T01:34:10.502Z,30.27
2019-02-17T01:36:41.125Z,24.65
2019-02-17T01:39:11.789Z,26.42
2019-02-17T01:41:42.362Z,38.60
2019-02-17T01:44:12.967Z,34.30
2019-02-17T01:46:43.677Z,24.37
2019-02-17T01:49:14.327Z,33.92
2019-02-17T01:51:44.896Z,30.20
2019-02-17T01:54:15.562Z,29.92
2019-02-17T01:56:46.158Z,31.37
2019-02-17T01:59:16.836Z,29.30
2019-02-17T02:01:47.487Z,32.35
2019-02-17T02:04:18.118Z,31.90
2019-02-17T02:06:48.825Z,27.73
2019-02-17T02:09:19.429Z,35.23
2019-02-17T02:11:50.041Z,26.27
2019-02-17T02:14:20.783Z,33.92
2019-02-17T02:16:51.337Z,33.58
2019-02-17T02:19:21.948Z,30.62
2019-02-17T02:21:52.613Z,27.87
2019-02-17T02:24:23.300Z,29.87
2019-02-17T02:26:53.917Z,25.52
2019-02-17T02:29:24.628Z,30.45
2019-02-17T02:31:55.272Z,30.83
2019-02-17T02:34:25.918Z,26.93
2019-02-17T02:36:56.672Z,33.88
2019-02-17T02:39:27.369Z,24.45
2019-02-17T02:41:57.982Z,33.35
2019-02-17T02:44:28.631Z,31.05
2019-02-17T02:46:59.320Z,26.37
2019-02-17T02:49:30.111Z,28.70
2019-02-17T02:52:00.727Z,30.37
2019-02-17T02:54:31.543Z,28.25
2019-02-17T02:57:02.103Z,29.48
2019-02-17T02:59:32.845Z,30.95
2019-02-17T03:02:03.399Z,28.77
2019-02-17T03:04:34.039Z,22.42
2019-02-17T03:07:07.972Z,26.67
2019-02-17T03:09:38.579Z,26.40
2019-02-17T03:12:09.218Z,25.52
2019-02-17T03:14:39.884Z,24.37
2019-02-17T03:17:10.455Z,28.15
2019-02-17T03:19:41.022Z,25.12
2019-02-17T03:22:11.642Z,25.90
2019-02-17T03:24:42.355Z,30.10
2019-02-17T03:27:12.931Z,24.27
2019-02-17T03:29:43.550Z,22.27
2019-02-17T03:32:14.141Z,24.50
2019-02-17T03:34:44.817Z,18.15
2019-02-17T03:37:15.418Z,26.90
2019-02-17T03:39:45.991Z,25.45
2019-02-17T03:42:16.590Z,23.55
2019-02-17T03:44:47.175Z,24.35
2019-02-17T03:47:17.880Z,30.05
2019-02-17T03:49:48.442Z,21.93
2019-02-17T03:52:19.064Z,24.10
2019-02-17T03:54:49.639Z,27.45
2019-02-17T03:57:20.261Z,31.48
2019-02-17T03:59:51.044Z,29.45
2019-02-17T06:32:50.862Z,36.40
2019-02-17T06:35:21.378Z,38.15
2019-02-17T06:37:51.835Z,44.00
2019-02-17T06:40:22.419Z,39.58
2019-02-17T06:42:52.890Z,44.27
2019-02-17T06:45:23.389Z,42.05
2019-02-17T06:47:54.003Z,44.15
2019-02-17T06:50:24.467Z,40.20
2019-02-17T06:52:54.975Z,43.25
2019-02-17T06:55:56.577Z,39.67
2019-02-17T06:58:27.100Z,37.95
2019-02-17T07:00:59.520Z,35.38
2019-02-17T07:03:30.176Z,43.80
2019-02-17T07:06:18.039Z,41.68
2019-02-17T07:08:48.681Z,46.33
2019-02-17T07:11:19.171Z,37.33
2019-02-17T07:13:49.666Z,44.27
2019-02-17T07:16:23.214Z,38.10
2019-02-17T07:18:53.711Z,41.73
2019-02-17T07:21:24.199Z,41.00
2019-02-17T07:23:55.170Z,43.80
2019-02-17T07:26:25.739Z,43.08
2019-02-17T07:28:56.309Z,45.03
2019-02-17T07:31:34.626Z,52.48
2019-02-17T07:34:03.508Z,45.80
2019-02-17T07:36:34.522Z,50.30
2019-02-17T07:39:06.279Z,52.17
2019-02-17T07:41:37.127Z,46.42
2019-02-17T07:44:07.941Z,43.55
2019-02-17T07:46:39.059Z,51.93
2019-02-17T07:49:09.791Z,50.17
2019-02-17T07:51:40.757Z,43.92
2019-02-17T07:54:11.453Z,48.00
2019-02-17T07:56:44.144Z,44.55
2019-02-17T07:59:14.739Z,49.10
2019-02-17T08:01:45.760Z,49.50
2019-02-17T08:04:17.839Z,51.08
2019-02-17T08:06:48.659Z,54.42
2019-02-17T08:09:19.833Z,58.07
2019-02-17T08:11:51.133Z,55.88
2019-02-17T08:14:21.680Z,53.10
2019-02-17T08:16:52.240Z,47.00
2019-02-17T08:19:22.739Z,56.42
2019-02-17T08:21:55.703Z,52.03
2019-02-17T08:24:26.482Z,52.83
2019-02-17T08:26:57.227Z,51.75
2019-02-17T08:29:29.543Z,60.92
2019-02-17T08:32:00.221Z,48.28
2019-02-17T08:34:30.798Z,57.33
2019-02-17T08:37:01.307Z,57.78
2019-02-17T08:39:31.944Z,53.48
2019-02-17T08:42:03.013Z,53.38
2019-02-17T08:44:33.526Z,54.15
2019-02-17T08:47:04.133Z,51.77
2019-02-17T08:49:34.700Z,53.42
2019-02-17T08:52:05.294Z,54.18
2019-02-17T08:54:35.816Z,53.83
2019-02-17T08:57:06.330Z,49.10
2019-02-17T08:59:36.914Z,53.42
2019-02-17T09:02:07.721Z,50.28
2019-02-17T09:04:38.166Z,51.00
2019-02-17T09:07:08.964Z,52.25
2019-02-17T09:09:39.479Z,56.83
2019-02-17T09:12:09.989Z,52.40
2019-02-17T09:14:40.594Z,52.43
2019-02-17T09:17:11.147Z,46.28
2019-02-17T09:19:41.716Z,56.27
2019-02-17T09:22:12.209Z,52.10
2019-02-17T09:24:42.935Z,49.35
2019-02-17T09:27:13.450Z,51.80
2019-02-17T09:29:43.911Z,48.05
2019-02-17T09:32:16.657Z,52.03
2019-02-17T09:34:46.989Z,54.75
2019-02-17T09:37:17.627Z,46.08
2019-02-17T09:39:48.194Z,47.93
2019-02-17T09:42:18.664Z,48.00
2019-02-17T09:44:49.246Z,45.35
2019-02-17T09:47:19.730Z,48.03
2019-02-17T09:49:50.253Z,45.43
2019-02-17T09:52:20.886Z,40.67
2019-02-17T09:54:51.417Z,46.10
2019-02-17T09:57:21.859Z,49.73
2019-02-17T09:59:52.821Z,50.80
2019-02-17T10:02:26.500Z,55.45
2019-02-17T10:04:56.694Z,59.45
2019-02-17T10:07:27.308Z,70.97
2019-02-17T10:09:57.850Z,64.30
2019-02-17T10:12:28.386Z,61.68
2019-02-17T10:14:58.972Z,62.67
2019-02-17T10:17:31.142Z,54.73
2019-02-17T10:20:01.855Z,54.13
2019-02-17T10:22:32.418Z,55.77
2019-02-17T10:25:02.963Z,62.50
2019-02-17T10:27:33.697Z,58.95
2019-02-17T10:30:04.619Z,55.35
2019-02-17T10:32:38.984Z,61.57
2019-02-17T10:35:08.103Z,58.63
2019-02-17T10:37:38.830Z,63.10
2019-02-17T10:40:12.097Z,66.75
2019-02-17T10:42:42.678Z,54.43
2019-02-17T10:45:13.586Z,63.28
2019-02-17T10:47:44.311Z,61.40
2019-02-17T10:50:14.903Z,61.53
2019-02-17T10:52:45.477Z,57.98
2019-02-17T10:55:16.130Z,59.27
2019-02-17T10:57:47.267Z,51.45
2019-02-17T11:00:19.732Z,62.35
2019-02-17T11:02:50.812Z,61.85
2019-02-17T11:05:22.981Z,59.10
2019-02-17T11:07:53.571Z,60.48
2019-02-17T11:10:24.110Z,60.65
2019-02-17T11:12:54.662Z,55.45
2019-02-17T11:15:25.271Z,55.83
2019-02-17T11:17:56.181Z,59.80
2019-02-17T11:20:26.696Z,64.65
2019-02-17T11:22:57.257Z,58.98
2019-02-17T11:25:27.835Z,52.93
2019-02-17T11:27:58.397Z,49.80
2019-02-17T11:30:28.943Z,58.50
2019-02-17T11:32:59.600Z,59.85
2019-02-17T11:35:30.166Z,48.33
2019-02-17T11:38:00.791Z,54.42
2019-02-17T11:40:31.362Z,49.77
2019-02-17T11:43:01.960Z,50.67
2019-02-17T11:45:32.835Z,58.48
2019-02-17T11:48:03.983Z,46.42
2019-02-17T11:50:34.761Z,52.13
2019-02-17T11:53:05.316Z,49.25
2019-02-17T11:55:35.873Z,53.48
2019-02-17T11:58:06.382Z,48.58
2019-02-17T12:00:36.930Z,50.30
2019-02-17T12:03:08.375Z,42.93
2019-02-17T12:05:39.123Z,47.83
2019-02-17T12:08:09.611Z,49.50
2019-02-17T12:10:40.265Z,40.75
2019-02-17T12:13:10.876Z,48.15
2019-02-17T12:15:41.440Z,43.35
2019-02-17T12:18:12.079Z,45.83
2019-02-17T12:21:07.410Z,41.70
2019-02-17T12:23:43.567Z,42.60
2019-02-17T12:26:33.011Z,49.80
2019-02-17T12:29:09.807Z,45.28
2019-02-17T12:31:41.017Z,46.50
2019-02-17T12:34:11.580Z,40.17
2019-02-17T12:36:42.125Z,41.00
2019-02-17T12:39:15.091Z,46.50
2019-02-17T12:41:48.192Z,42.40
2019-02-17T12:44:19.115Z,37.25
2019-02-17T12:46:49.826Z,47.30
2019-02-17T12:49:20.451Z,40.92
2019-02-17T12:51:51.056Z,36.70
2019-02-17T12:54:28.858Z,39.65
2019-02-17T12:56:53.872Z,34.80
2019-02-17T12:59:24.667Z,38.35
2019-02-17T13:01:55.167Z,43.63
2019-02-17T13:04:25.818Z,37.58
2019-02-17T13:06:56.478Z,39.55
2019-02-17T13:09:27.018Z,38.92
2019-02-17T13:11:57.537Z,37.30
2019-02-17T13:14:28.318Z,37.95
2019-02-17T13:16:58.982Z,35.75
2019-02-17T13:19:29.595Z,37.35
2019-02-17T13:22:00.299Z,32.28
2019-02-17T13:24:31.086Z,36.45
2019-02-17T13:27:01.690Z,37.20
2019-02-17T13:29:32.326Z,35.13
2019-02-17T13:32:02.938Z,41.63
2019-02-17T13:34:33.490Z,37.07
2019-02-17T13:37:04.055Z,38.42
2019-02-17T13:39:34.626Z,31.37
2019-02-17T13:42:05.167Z,28.47
2019-02-17T13:44:35.840Z,35.85
2019-02-17T13:47:06.440Z,31.93
2019-02-17T13:49:37.128Z,31.42
2019-02-17T13:52:09.317Z,34.00
2019-02-17T13:54:39.921Z,31.80
2019-02-17T13:57:10.413Z,34.60
2019-02-17T13:59:41.118Z,32.25
2019-02-17T14:02:11.848Z,27.52
2019-02-17T14:04:45.912Z,34.75
2019-02-17T14:07:16.544Z,38.42
2019-02-17T14:09:47.183Z,38.90
2019-02-17T14:12:17.693Z,29.60
2019-02-17T14:14:48.377Z,34.03
2019-02-17T14:17:19.123Z,33.10
2019-02-17T14:19:49.951Z,32.95
2019-02-17T14:22:20.480Z,28.67
2019-02-17T14:24:50.941Z,33.15
2019-02-17T14:27:21.586Z,39.53
2019-02-17T14:29:53.803Z,30.60
2019-02-17T14:32:24.798Z,28.60
2019-02-17T14:34:55.359Z,30.80
2019-02-17T14:37:26.095Z,32.28
2019-02-17T14:39:56.796Z,31.65
2019-02-17T14:42:27.295Z,33.83
2019-02-17T14:44:58.379Z,32.28
2019-02-17T14:47:29.009Z,33.83
2019-02-17T14:49:59.560Z,36.33
2019-02-17T14:52:30.383Z,30.57
2019-02-17T14:55:00.940Z,30.25
2019-02-17T14:57:31.466Z,37.00
2019-02-17T15:00:02.100Z,27.55
2019-02-17T15:02:54.641Z,31.30
2019-02-17T15:05:25.222Z,29.82
2019-02-17T15:07:55.990Z,25.65
2019-02-17T15:10:26.547Z,33.95
2019-02-17T15:12:57.159Z,28.35
2019-02-17T15:15:29.055Z,31.82
2019-02-17T15:17:59.957Z,29.12
2019-02-17T15:20:30.743Z,24.12
2019-02-17T15:23:02.051Z,30.35
2019-02-17T15:25:32.591Z,26.77
2019-02-17T15:28:03.398Z,29.25
2019-02-17T15:30:34.105Z,27.20
2019-02-17T15:33:04.685Z,30.57
2019-02-17T15:35:35.209Z,24.57
2019-02-17T15:38:05.822Z,23.00
2019-02-17T15:40:36.458Z,28.25
2019-02-17T15:43:07.200Z,26.60
2019-02-17T15:45:37.807Z,27.20
2019-02-17T15:48:08.401Z,26.73
2019-02-17T15:50:39.085Z,27.45
2019-02-17T15:53:09.588Z,25.03
2019-02-17T15:55:40.266Z,30.30
2019-02-17T15:58:10.731Z,27.10
2019-02-17T16:00:41.216Z,22.40
2019-02-17T16:03:11.752Z,26.93
2019-02-17T16:05:42.290Z,26.87
2019-02-17T16:08:12.787Z,23.45
2019-02-17T16:10:43.319Z,20.90
2019-02-17T16:13:13.862Z,24.43
2019-02-17T16:15:44.783Z,25.35
2019-02-17T16:18:15.653Z,23.77
2019-02-17T16:20:46.200Z,20.10
2019-02-17T16:23:16.788Z,20.48
2019-02-17T16:25:47.691Z,26.33
2019-02-17T16:28:18.898Z,19.35
2019-02-17T16:30:49.390Z,23.30
2019-02-17T16:33:19.932Z,20.93
2019-02-17T16:35:50.801Z,23.73
2019-02-17T16:38:21.401Z,22.65
2019-02-17T16:40:51.925Z,24.47
2019-02-17T16:43:22.851Z,26.23
2019-02-17T16:45:53.553Z,14.90
2019-02-17T16:48:24.243Z,19.98
2019-02-17T16:50:54.762Z,18.20
2019-02-17T16:53:25.706Z,20.95
2019-02-17T16:55:56.895Z,25.68
2019-02-17T16:58:27.468Z,23.55
2019-02-17T17:00:57.995Z,19.92
2019-02-17T17:03:28.479Z,25.68
2019-02-17T17:05:59.005Z,22.60
2019-02-17T17:08:29.522Z,23.40
2019-02-17T17:11:00.079Z,19.60
2019-02-17T17:13:30.595Z,24.83
2019-02-17T17:16:01.089Z,24.87
2019-02-17T17:18:31.614Z,26.37
2019-02-17T17:21:02.787Z,26.10
2019-02-17T17:23:33.471Z,31.85
2019-02-17T17:26:04.111Z,27.77
2019-02-17T17:28:34.912Z,30.60
2019-02-17T17:31:05.417Z,28.85
2019-02-17T17:33:36.005Z,26.85
2019-02-17T17:36:18.093Z,31.35
2019-02-17T17:38:48.325Z,28.98
2019-02-17T17:41:18.836Z,29.23
2019-02-17T17:43:49.337Z,28.00
2019-02-17T17:46:19.884Z,27.10
2019-02-17T17:48:51.689Z,28.95
2019-02-17T17:51:22.189Z,27.60
2019-02-17T17:53:52.728Z,24.82
2019-02-17T17:56:23.255Z,29.77
2019-02-17T17:58:53.859Z,29.32
2019-02-17T18:01:24.366Z,28.15
2019-02-17T18:03:54.885Z,26.07
2019-02-17T18:06:25.388Z,29.63
2019-02-17T18:08:55.896Z,27.67
2019-02-17T18:11:26.464Z,30.57
2019-02-17T18:13:56.901Z,31.60
2019-02-17T18:16:27.407Z,28.17
2019-02-17T18:18:57.947Z,27.45
2019-02-17T18:21:28.483Z,29.30
2019-02-17T18:23:59.466Z,30.65
2019-02-17T18:26:30.549Z,31.85
2019-02-17T18:29:01.091Z,31.75
2019-02-17T18:31:32.018Z,29.67
2019-02-17T18:34:02.509Z,29.72
2019-02-17T18:36:36.863Z,27.87
2019-02-17T18:39:08.980Z,27.55
2019-02-17T18:41:39.460Z,31.90
2019-02-17T18:44:13.638Z,22.70
2019-02-17T18:46:44.159Z,30.35
2019-02-17T18:49:14.703Z,32.58
2019-02-17T18:51:45.311Z,30.88
2019-02-17T18:54:15.841Z,34.33
2019-02-17T18:56:46.347Z,27.80
2019-02-17T18:59:16.952Z,33.05
2019-02-17T19:01:50.126Z,34.43
2019-02-17T19:04:20.728Z,29.35
2019-02-17T19:06:51.350Z,31.90
2019-02-17T19:09:22.147Z,36.90
2019-02-17T19:11:52.625Z,30.37
2019-02-17T19:14:23.225Z,28.20
2019-02-17T19:16:54.125Z,33.00
2019-02-17T19:19:26.364Z,33.53
2019-02-17T19:21:57.013Z,36.20
2019-02-17T19:24:27.660Z,33.23
2019-02-17T19:26:58.249Z,29.02
2019-02-17T19:29:29.030Z,34.10
2019-02-17T19:31:59.559Z,38.75
2019-02-17T19:34:30.244Z,36.33
2019-02-17T19:37:00.828Z,37.55
2019-02-17T19:39:31.347Z,39.10
2019-02-17T19:42:01.885Z,40.80
2019-02-17T19:44:32.426Z,39.17
2019-02-17T19:47:03.400Z,42.73
2019-02-17T19:49:47.011Z,40.95
2019-02-17T19:52:18.400Z,37.13
2019-02-17T19:54:49.170Z,41.45
2019-02-17T19:57:19.817Z,35.52
2019-02-17T19:59:50.451Z,35.30
2019-02-17T20:02:28.362Z,38.78
2019-02-17T20:05:11.624Z,33.95
2019-02-17T20:07:42.203Z,39.60
2019-02-17T20:10:12.711Z,43.40
2019-02-17T20:12:43.340Z,36.17
2019-02-17T20:15:13.937Z,39.83
2019-02-17T20:17:44.562Z,35.35
2019-02-17T20:20:15.248Z,42.50
2019-02-17T20:22:45.900Z,35.00
2019-02-17T20:25:19.217Z,36.17
2019-02-17T20:27:49.729Z,38.90
2019-02-17T20:30:20.680Z,40.95
2019-02-17T20:32:51.254Z,40.55
2019-02-17T20:35:22.052Z,35.10
2019-02-17T20:37:52.608Z,48.85
2019-02-17T20:40:30.223Z,40.93
2019-02-17T20:43:00.788Z,37.30
2019-02-17T20:45:31.317Z,35.83
2019-02-17T20:48:03.109Z,41.25
2019-02-17T20:50:33.904Z,45.12
2019-02-17T20:53:04.625Z,36.65
2019-02-17T20:55:35.244Z,38.13
2019-02-17T20:58:05.874Z,34.20
2019-02-17T21:00:36.504Z,37.23
2019-02-17T21:03:07.101Z,36.45
2019-02-17T21:05:37.614Z,37.78
2019-02-17T21:08:08.296Z,37.00
2019-02-17T21:10:40.493Z,41.83
2019-02-17T21:13:11.300Z,34.85
2019-02-17T21:15:42.185Z,39.85
2019-02-17T21:18:12.936Z,41.20
2019-02-17T21:20:43.583Z,39.40
2019-02-17T21:23:15.377Z,40.55
2019-02-17T21:25:48.588Z,34.15
2019-02-17T21:28:20.830Z,35.20
2019-02-17T21:31:10.588Z,33.35
2019-02-17T21:33:44.911Z,41.63
2019-02-17T21:36:23.203Z,37.75
2019-02-17T21:38:50.232Z,37.03
2019-02-17T21:41:21.246Z,40.83
2019-02-17T21:43:52.339Z,37.15
2019-02-17T21:46:22.931Z,37.20
2019-02-17T21:48:53.581Z,45.50
2019-02-17T21:51:24.166Z,35.40
2019-02-17T21:53:54.662Z,39.35
2019-02-17T21:56:25.179Z,40.50
2019-02-17T21:58:56.917Z,35.43
2019-02-17T22:01:27.489Z,36.68
2019-02-17T22:03:58.061Z,42.10
2019-02-17T22:06:33.555Z,38.90
2019-02-17T22:09:00.932Z,43.95
2019-02-17T22:11:32.688Z,38.60
2019-02-17T22:14:03.447Z,40.60
2019-02-17T22:16:34.022Z,43.75
2019-02-17T22:19:04.642Z,42.57
2019-02-17T22:21:35.265Z,38.28
2019-02-17T22:24:05.822Z,39.60
2019-02-17T22:26:36.439Z,38.25
2019-02-17T22:29:07.127Z,36.13
2019-02-17T22:31:37.696Z,31.25
2019-02-17T22:34:08.401Z,32.55
2019-02-17T22:36:43.778Z,39.77
2019-02-17T22:39:11.437Z,40.35
2019-02-17T22:41:42.042Z,30.77
2019-02-17T22:44:12.827Z,38.23
2019-02-17T22:46:43.389Z,38.80
2019-02-17T22:49:14.089Z,38.17
2019-02-17T22:51:44.607Z,39.08
2019-02-17T22:54:15.179Z,37.98
2019-02-17T22:56:45.803Z,39.48
2019-02-17T22:59:16.436Z,42.27
2019-02-17T23:01:47.580Z,42.25
2019-02-17T23:04:18.163Z,38.58
2019-02-17T23:06:54.053Z,37.25
2019-02-17T23:09:21.176Z,36.17
2019-02-17T23:11:51.857Z,45.70
2019-02-17T23:14:22.460Z,37.85
2019-02-17T23:16:52.995Z,38.88
2019-02-17T23:19:23.588Z,36.35
2019-02-17T23:21:54.231Z,35.60
2019-02-17T23:24:24.989Z,32.50
2019-02-17T23:26:55.559Z,39.20
2019-02-17T23:29:26.218Z,39.85
2019-02-17T23:31:56.850Z,37.33
2019-02-17T23:34:27.439Z,40.38
2019-02-17T23:37:04.033Z,36.35
2019-02-17T23:39:30.296Z,37.85
2019-02-17T23:42:00.974Z,38.92
2019-02-17T23:44:31.977Z,34.35
2019-02-17T23:47:02.517Z,30.57
2019-02-17T23:49:33.115Z,36.28
2019-02-17T23:52:03.663Z,33.13
2019-02-17T23:54:34.314Z,36.33
2019-02-17T23:57:04.922Z,36.75
2019-02-17T23:59:35.521Z,37.65
